sensor_id;sensor_type;location;lat;lon;timestamp;temperature;humidity
12013;DHT22;6065;48.138;16.402;2023-06-01T00:01:42;18.60;91.30
12013;DHT22;6065;48.138;16.402;2023-06-01T00:04:09;18.50;91.20
12013;DHT22;6065;48.138;16.402;2023-06-01T00:06:36;18.60;91.20
12013;DHT22;6065;48.138;16.402;2023-06-01T00:09:03;18.60;91.10
12013;DHT22;6065;48.138;16.402;2023-06-01T00:11:30;18.60;91.20
12013;DHT22;6065;48.138;16.402;2023-06-01T00:13:57;18.60;91.20
12013;DHT22;6065;48.138;16.402;2023-06-01T00:16:25;18.40;91.30
12013;DHT22;6065;48.138;16.402;2023-06-01T00:18:52;18.40;91.40
12013;DHT22;6065;48.138;16.402;2023-06-01T00:21:21;18.30;91.50
12013;DHT22;6065;48.138;16.402;2023-06-01T00:23:48;18.30;91.60
12013;DHT22;6065;48.138;16.402;2023-06-01T00:26:14;18.30;91.70
12013;DHT22;6065;48.138;16.402;2023-06-01T00:28:41;18.20;91.70
12013;DHT22;6065;48.138;16.402;2023-06-01T00:31:08;18.20;91.70
12013;DHT22;6065;48.138;16.402;2023-06-01T00:33:36;18.10;91.80
12013;DHT22;6065;48.138;16.402;2023-06-01T00:36:03;18.10;92.10
12013;DHT22;6065;48.138;16.402;2023-06-01T00:38:30;18.10;91.90
12013;DHT22;6065;48.138;16.402;2023-06-01T00:40:56;18.10;92.00
12013;DHT22;6065;48.138;16.402;2023-06-01T00:43:23;18.10;92.10
12013;DHT22;6065;48.138;16.402;2023-06-01T00:45:50;18.10;92.00
12013;DHT22;6065;48.138;16.402;2023-06-01T00:48:16;18.10;92.00
12013;DHT22;6065;48.138;16.402;2023-06-01T00:50:45;18.10;92.10
12013;DHT22;6065;48.138;16.402;2023-06-01T00:53:14;18.00;92.10
12013;DHT22;6065;48.138;16.402;2023-06-01T00:55:42;18.00;92.20
12013;DHT22;6065;48.138;16.402;2023-06-01T00:58:08;17.90;92.30
12013;DHT22;6065;48.138;16.402;2023-06-01T01:00:35;17.90;92.50
12013;DHT22;6065;48.138;16.402;2023-06-01T01:03:04;17.90;92.50
12013;DHT22;6065;48.138;16.402;2023-06-01T01:05:32;17.90;92.50
12013;DHT22;6065;48.138;16.402;2023-06-01T01:08:02;17.90;92.50
12013;DHT22;6065;48.138;16.402;2023-06-01T01:10:30;17.80;92.50
12013;DHT22;6065;48.138;16.402;2023-06-01T01:13:00;17.80;92.50
12013;DHT22;6065;48.138;16.402;2023-06-01T01:15:29;17.80;92.60
12013;DHT22;6065;48.138;16.402;2023-06-01T01:17:59;17.80;92.60
12013;DHT22;6065;48.138;16.402;2023-06-01T01:20:29;17.80;92.60
12013;DHT22;6065;48.138;16.402;2023-06-01T01:23:10;17.80;92.60
12013;DHT22;6065;48.138;16.402;2023-06-01T01:25:52;17.70;92.60
12013;DHT22;6065;48.138;16.402;2023-06-01T01:28:28;17.60;92.70
12013;DHT22;6065;48.138;16.402;2023-06-01T01:30:58;17.50;92.80
12013;DHT22;6065;48.138;16.402;2023-06-01T01:33:25;17.40;93.00
12013;DHT22;6065;48.138;16.402;2023-06-01T01:35:52;17.30;93.10
12013;DHT22;6065;48.138;16.402;2023-06-01T01:38:20;17.20;93.20
12013;DHT22;6065;48.138;16.402;2023-06-01T01:40:46;17.20;93.40
12013;DHT22;6065;48.138;16.402;2023-06-01T01:43:14;17.20;93.50
12013;DHT22;6065;48.138;16.402;2023-06-01T01:45:43;17.10;93.40
12013;DHT22;6065;48.138;16.402;2023-06-01T01:48:17;17.10;93.30
12013;DHT22;6065;48.138;16.402;2023-06-01T01:50:46;17.00;93.10
12013;DHT22;6065;48.138;16.402;2023-06-01T01:53:15;16.80;93.10
12013;DHT22;6065;48.138;16.402;2023-06-01T01:55:43;16.70;93.20
12013;DHT22;6065;48.138;16.402;2023-06-01T01:58:11;16.80;93.40
12013;DHT22;6065;48.138;16.402;2023-06-01T02:00:39;16.80;93.40
12013;DHT22;6065;48.138;16.402;2023-06-01T02:03:13;16.90;93.10
12013;DHT22;6065;48.138;16.402;2023-06-01T02:05:40;16.80;93.30
12013;DHT22;6065;48.138;16.402;2023-06-01T02:08:07;16.70;93.40
12013;DHT22;6065;48.138;16.402;2023-06-01T02:10:34;16.60;93.50
12013;DHT22;6065;48.138;16.402;2023-06-01T02:13:01;16.60;93.40
12013;DHT22;6065;48.138;16.402;2023-06-01T02:15:28;16.60;93.40
12013;DHT22;6065;48.138;16.402;2023-06-01T02:17:54;16.60;93.30
12013;DHT22;6065;48.138;16.402;2023-06-01T02:20:23;16.50;93.40
12013;DHT22;6065;48.138;16.402;2023-06-01T02:22:50;16.50;93.60
12013;DHT22;6065;48.138;16.402;2023-06-01T02:25:16;16.50;93.40
12013;DHT22;6065;48.138;16.402;2023-06-01T02:27:44;16.60;93.30
12013;DHT22;6065;48.138;16.402;2023-06-01T02:30:11;16.60;93.20
12013;DHT22;6065;48.138;16.402;2023-06-01T02:32:38;16.50;93.20
12013;DHT22;6065;48.138;16.402;2023-06-01T02:35:05;16.50;93.20
12013;DHT22;6065;48.138;16.402;2023-06-01T02:37:34;16.50;93.30
12013;DHT22;6065;48.138;16.402;2023-06-01T02:40:00;16.50;93.30
12013;DHT22;6065;48.138;16.402;2023-06-01T02:42:28;16.40;93.50
12013;DHT22;6065;48.138;16.402;2023-06-01T02:44:55;16.40;93.50
12013;DHT22;6065;48.138;16.402;2023-06-01T02:47:21;16.40;93.60
12013;DHT22;6065;48.138;16.402;2023-06-01T02:49:48;16.40;93.60
12013;DHT22;6065;48.138;16.402;2023-06-01T02:52:15;16.30;93.70
12013;DHT22;6065;48.138;16.402;2023-06-01T02:54:43;16.30;93.80
12013;DHT22;6065;48.138;16.402;2023-06-01T02:57:09;16.30;94.00
12013;DHT22;6065;48.138;16.402;2023-06-01T02:59:36;16.40;93.90
12013;DHT22;6065;48.138;16.402;2023-06-01T03:02:03;16.40;93.90
12013;DHT22;6065;48.138;16.402;2023-06-01T03:04:29;16.30;94.10
12013;DHT22;6065;48.138;16.402;2023-06-01T03:06:58;16.20;94.20
12013;DHT22;6065;48.138;16.402;2023-06-01T03:09:25;16.30;94.30
12013;DHT22;6065;48.138;16.402;2023-06-01T03:11:53;16.30;94.30
12013;DHT22;6065;48.138;16.402;2023-06-01T03:14:20;16.30;94.30
12013;DHT22;6065;48.138;16.402;2023-06-01T03:16:46;16.30;94.30
12013;DHT22;6065;48.138;16.402;2023-06-01T03:19:13;16.20;94.30
12013;DHT22;6065;48.138;16.402;2023-06-01T03:21:40;16.30;94.30
12013;DHT22;6065;48.138;16.402;2023-06-01T03:24:07;16.20;94.30
12013;DHT22;6065;48.138;16.402;2023-06-01T03:26:34;16.30;94.40
12013;DHT22;6065;48.138;16.402;2023-06-01T03:29:02;16.30;94.40
12013;DHT22;6065;48.138;16.402;2023-06-01T03:31:29;16.30;94.40
12013;DHT22;6065;48.138;16.402;2023-06-01T03:33:59;16.20;94.40
12013;DHT22;6065;48.138;16.402;2023-06-01T03:36:26;16.20;94.40
12013;DHT22;6065;48.138;16.402;2023-06-01T03:38:53;16.20;94.60
12013;DHT22;6065;48.138;16.402;2023-06-01T03:41:20;16.20;94.60
12013;DHT22;6065;48.138;16.402;2023-06-01T03:43:47;16.20;94.70
12013;DHT22;6065;48.138;16.402;2023-06-01T03:46:15;16.20;94.80
12013;DHT22;6065;48.138;16.402;2023-06-01T03:48:42;16.20;94.90
12013;DHT22;6065;48.138;16.402;2023-06-01T03:51:09;16.20;95.00
12013;DHT22;6065;48.138;16.402;2023-06-01T03:53:36;16.10;95.10
12013;DHT22;6065;48.138;16.402;2023-06-01T03:56:03;16.20;95.10
12013;DHT22;6065;48.138;16.402;2023-06-01T03:58:29;16.20;95.00
12013;DHT22;6065;48.138;16.402;2023-06-01T04:00:56;16.10;95.00
12013;DHT22;6065;48.138;16.402;2023-06-01T04:03:25;16.10;95.00
12013;DHT22;6065;48.138;16.402;2023-06-01T04:05:52;16.10;95.10
12013;DHT22;6065;48.138;16.402;2023-06-01T04:08:24;16.10;95.10
12013;DHT22;6065;48.138;16.402;2023-06-01T04:10:51;16.20;95.20
12013;DHT22;6065;48.138;16.402;2023-06-01T04:13:17;16.10;95.20
12013;DHT22;6065;48.138;16.402;2023-06-01T04:15:44;16.10;95.40
12013;DHT22;6065;48.138;16.402;2023-06-01T04:18:11;16.20;95.40
12013;DHT22;6065;48.138;16.402;2023-06-01T04:20:39;16.20;95.30
12013;DHT22;6065;48.138;16.402;2023-06-01T04:23:06;16.10;95.30
12013;DHT22;6065;48.138;16.402;2023-06-01T04:25:33;16.20;95.40
12013;DHT22;6065;48.138;16.402;2023-06-01T04:27:59;16.20;95.30
12013;DHT22;6065;48.138;16.402;2023-06-01T04:30:26;16.20;95.30
12013;DHT22;6065;48.138;16.402;2023-06-01T04:32:53;16.20;95.50
12013;DHT22;6065;48.138;16.402;2023-06-01T04:35:20;16.20;95.60
12013;DHT22;6065;48.138;16.402;2023-06-01T04:37:48;16.30;95.80
12013;DHT22;6065;48.138;16.402;2023-06-01T04:40:15;16.30;95.70
12013;DHT22;6065;48.138;16.402;2023-06-01T04:42:42;16.30;95.70
12013;DHT22;6065;48.138;16.402;2023-06-01T04:45:14;16.40;95.80
12013;DHT22;6065;48.138;16.402;2023-06-01T04:47:41;16.40;95.80
12013;DHT22;6065;48.138;16.402;2023-06-01T04:50:10;16.40;95.80
12013;DHT22;6065;48.138;16.402;2023-06-01T04:52:37;16.40;96.00
12013;DHT22;6065;48.138;16.402;2023-06-01T04:55:06;16.50;96.00
12013;DHT22;6065;48.138;16.402;2023-06-01T04:57:33;16.40;95.60
12013;DHT22;6065;48.138;16.402;2023-06-01T05:00:00;16.20;95.70
12013;DHT22;6065;48.138;16.402;2023-06-01T05:02:29;16.00;96.10
12013;DHT22;6065;48.138;16.402;2023-06-01T05:04:56;16.00;96.30
12013;DHT22;6065;48.138;16.402;2023-06-01T05:07:22;16.10;96.30
12013;DHT22;6065;48.138;16.402;2023-06-01T05:09:50;16.20;96.10
12013;DHT22;6065;48.138;16.402;2023-06-01T05:12:18;16.20;96.10
12013;DHT22;6065;48.138;16.402;2023-06-01T05:14:45;16.20;96.30
12013;DHT22;6065;48.138;16.402;2023-06-01T05:17:11;16.30;96.40
12013;DHT22;6065;48.138;16.402;2023-06-01T05:19:38;16.40;96.40
12013;DHT22;6065;48.138;16.402;2023-06-01T05:22:05;16.50;96.30
12013;DHT22;6065;48.138;16.402;2023-06-01T05:24:32;16.50;96.10
12013;DHT22;6065;48.138;16.402;2023-06-01T05:26:58;16.50;96.20
12013;DHT22;6065;48.138;16.402;2023-06-01T05:29:27;16.50;96.40
12013;DHT22;6065;48.138;16.402;2023-06-01T05:31:54;16.40;96.60
12013;DHT22;6065;48.138;16.402;2023-06-01T05:34:21;16.60;96.60
12013;DHT22;6065;48.138;16.402;2023-06-01T05:36:47;16.70;96.60
12013;DHT22;6065;48.138;16.402;2023-06-01T05:39:15;16.80;96.40
12013;DHT22;6065;48.138;16.402;2023-06-01T05:41:42;16.80;96.30
12013;DHT22;6065;48.138;16.402;2023-06-01T05:44:08;16.80;96.40
12013;DHT22;6065;48.138;16.402;2023-06-01T05:46:37;16.90;96.70
12013;DHT22;6065;48.138;16.402;2023-06-01T05:49:04;16.90;96.60
12013;DHT22;6065;48.138;16.402;2023-06-01T05:51:30;17.00;96.60
12013;DHT22;6065;48.138;16.402;2023-06-01T05:54:02;17.10;96.50
12013;DHT22;6065;48.138;16.402;2023-06-01T05:56:29;17.20;96.30
12013;DHT22;6065;48.138;16.402;2023-06-01T05:58:56;17.20;96.30
12013;DHT22;6065;48.138;16.402;2023-06-01T06:01:22;17.30;96.60
12013;DHT22;6065;48.138;16.402;2023-06-01T06:03:50;17.40;96.60
12013;DHT22;6065;48.138;16.402;2023-06-01T06:06:17;17.40;96.60
12013;DHT22;6065;48.138;16.402;2023-06-01T06:08:44;17.50;96.50
12013;DHT22;6065;48.138;16.402;2023-06-01T06:11:11;17.60;96.50
12013;DHT22;6065;48.138;16.402;2023-06-01T06:13:37;17.70;96.40
12013;DHT22;6065;48.138;16.402;2023-06-01T06:16:04;17.80;96.50
12013;DHT22;6065;48.138;16.402;2023-06-01T06:18:31;17.90;96.60
12013;DHT22;6065;48.138;16.402;2023-06-01T06:20:59;18.00;96.60
12013;DHT22;6065;48.138;16.402;2023-06-01T06:23:26;18.00;96.50
12013;DHT22;6065;48.138;16.402;2023-06-01T06:25:55;18.10;96.40
12013;DHT22;6065;48.138;16.402;2023-06-01T06:28:22;18.20;96.50
12013;DHT22;6065;48.138;16.402;2023-06-01T06:30:48;18.30;96.40
12013;DHT22;6065;48.138;16.402;2023-06-01T06:33:16;18.30;96.00
12013;DHT22;6065;48.138;16.402;2023-06-01T06:35:42;18.40;95.60
12013;DHT22;6065;48.138;16.402;2023-06-01T06:38:11;18.50;95.50
12013;DHT22;6065;48.138;16.402;2023-06-01T06:40:38;18.50;95.00
12013;DHT22;6065;48.138;16.402;2023-06-01T06:43:05;18.60;94.90
12013;DHT22;6065;48.138;16.402;2023-06-01T06:45:31;18.60;94.80
12013;DHT22;6065;48.138;16.402;2023-06-01T06:47:58;18.70;95.40
12013;DHT22;6065;48.138;16.402;2023-06-01T06:50:25;18.70;94.80
12013;DHT22;6065;48.138;16.402;2023-06-01T06:52:51;18.80;94.90
12013;DHT22;6065;48.138;16.402;2023-06-01T06:55:20;18.80;94.80
12013;DHT22;6065;48.138;16.402;2023-06-01T06:57:47;18.80;94.90
12013;DHT22;6065;48.138;16.402;2023-06-01T07:00:14;19.00;94.90
12013;DHT22;6065;48.138;16.402;2023-06-01T07:02:41;19.00;94.80
12013;DHT22;6065;48.138;16.402;2023-06-01T07:05:10;19.10;94.80
12013;DHT22;6065;48.138;16.402;2023-06-01T07:07:37;19.20;94.30
12013;DHT22;6065;48.138;16.402;2023-06-01T07:10:04;19.30;94.20
12013;DHT22;6065;48.138;16.402;2023-06-01T07:12:32;19.40;94.30
12013;DHT22;6065;48.138;16.402;2023-06-01T07:15:01;19.40;93.80
12013;DHT22;6065;48.138;16.402;2023-06-01T07:17:28;19.50;93.90
12013;DHT22;6065;48.138;16.402;2023-06-01T07:19:54;19.50;93.70
12013;DHT22;6065;48.138;16.402;2023-06-01T07:22:21;19.60;94.00
12013;DHT22;6065;48.138;16.402;2023-06-01T07:24:48;19.60;93.60
12013;DHT22;6065;48.138;16.402;2023-06-01T07:27:16;19.70;93.00
12013;DHT22;6065;48.138;16.402;2023-06-01T07:29:44;19.70;92.30
12013;DHT22;6065;48.138;16.402;2023-06-01T07:32:11;19.80;92.30
12013;DHT22;6065;48.138;16.402;2023-06-01T07:34:38;19.80;92.30
12013;DHT22;6065;48.138;16.402;2023-06-01T07:37:04;19.80;92.10
12013;DHT22;6065;48.138;16.402;2023-06-01T07:39:32;19.90;92.00
12013;DHT22;6065;48.138;16.402;2023-06-01T07:41:59;20.00;91.90
12013;DHT22;6065;48.138;16.402;2023-06-01T07:44:26;20.00;91.70
12013;DHT22;6065;48.138;16.402;2023-06-01T07:46:54;20.10;91.30
12013;DHT22;6065;48.138;16.402;2023-06-01T07:49:21;20.20;91.10
12013;DHT22;6065;48.138;16.402;2023-06-01T07:51:48;20.30;91.10
12013;DHT22;6065;48.138;16.402;2023-06-01T07:54:16;20.40;91.50
12013;DHT22;6065;48.138;16.402;2023-06-01T07:56:43;20.60;91.40
12013;DHT22;6065;48.138;16.402;2023-06-01T07:59:10;20.60;91.50
12013;DHT22;6065;48.138;16.402;2023-06-01T08:01:37;20.80;90.40
12013;DHT22;6065;48.138;16.402;2023-06-01T08:04:05;20.80;90.50
12013;DHT22;6065;48.138;16.402;2023-06-01T08:06:32;20.90;90.60
12013;DHT22;6065;48.138;16.402;2023-06-01T08:09:00;20.90;90.50
12013;DHT22;6065;48.138;16.402;2023-06-01T08:11:27;20.90;90.50
12013;DHT22;6065;48.138;16.402;2023-06-01T08:13:54;21.00;90.80
12013;DHT22;6065;48.138;16.402;2023-06-01T08:16:21;21.10;89.90
12013;DHT22;6065;48.138;16.402;2023-06-01T08:18:48;21.20;90.00
12013;DHT22;6065;48.138;16.402;2023-06-01T08:21:17;21.30;90.20
12013;DHT22;6065;48.138;16.402;2023-06-01T08:23:44;21.40;90.10
12013;DHT22;6065;48.138;16.402;2023-06-01T08:26:12;21.50;90.10
12013;DHT22;6065;48.138;16.402;2023-06-01T08:28:39;21.50;89.90
12013;DHT22;6065;48.138;16.402;2023-06-01T08:31:06;21.50;90.10
12013;DHT22;6065;48.138;16.402;2023-06-01T08:33:33;21.60;90.80
12013;DHT22;6065;48.138;16.402;2023-06-01T08:35:59;21.60;90.70
12013;DHT22;6065;48.138;16.402;2023-06-01T08:38:27;21.70;90.60
12013;DHT22;6065;48.138;16.402;2023-06-01T08:40:57;21.80;89.40
12013;DHT22;6065;48.138;16.402;2023-06-01T08:43:25;21.80;89.30
12013;DHT22;6065;48.138;16.402;2023-06-01T08:45:53;21.90;89.30
12013;DHT22;6065;48.138;16.402;2023-06-01T08:48:21;21.90;89.30
12013;DHT22;6065;48.138;16.402;2023-06-01T08:50:49;22.00;88.80
12013;DHT22;6065;48.138;16.402;2023-06-01T08:53:18;22.00;86.90
12013;DHT22;6065;48.138;16.402;2023-06-01T08:55:48;22.20;87.60
12013;DHT22;6065;48.138;16.402;2023-06-01T08:58:16;22.20;87.30
12013;DHT22;6065;48.138;16.402;2023-06-01T09:00:43;22.30;86.10
12013;DHT22;6065;48.138;16.402;2023-06-01T09:03:10;22.30;85.00
12013;DHT22;6065;48.138;16.402;2023-06-01T09:05:37;22.30;86.60
12013;DHT22;6065;48.138;16.402;2023-06-01T09:08:05;22.40;85.50
12013;DHT22;6065;48.138;16.402;2023-06-01T09:10:32;22.50;84.60
12013;DHT22;6065;48.138;16.402;2023-06-01T09:13:00;22.60;85.70
12013;DHT22;6065;48.138;16.402;2023-06-01T09:15:27;22.60;84.60
12013;DHT22;6065;48.138;16.402;2023-06-01T09:18:03;22.70;84.20
12013;DHT22;6065;48.138;16.402;2023-06-01T09:20:31;22.80;85.00
12013;DHT22;6065;48.138;16.402;2023-06-01T09:22:58;22.80;82.90
12013;DHT22;6065;48.138;16.402;2023-06-01T09:25:25;22.90;82.60
12013;DHT22;6065;48.138;16.402;2023-06-01T09:27:53;22.90;81.50
12013;DHT22;6065;48.138;16.402;2023-06-01T09:30:22;22.90;81.90
12013;DHT22;6065;48.138;16.402;2023-06-01T09:32:49;23.00;81.40
12013;DHT22;6065;48.138;16.402;2023-06-01T09:37:59;23.20;78.00
12013;DHT22;6065;48.138;16.402;2023-06-01T09:40:28;23.30;81.00
12013;DHT22;6065;48.138;16.402;2023-06-01T09:42:55;23.40;80.20
12013;DHT22;6065;48.138;16.402;2023-06-01T09:45:23;23.50;79.30
12013;DHT22;6065;48.138;16.402;2023-06-01T09:47:51;23.60;79.70
12013;DHT22;6065;48.138;16.402;2023-06-01T09:50:33;23.60;76.30
12013;DHT22;6065;48.138;16.402;2023-06-01T09:53:01;23.70;75.80
12013;DHT22;6065;48.138;16.402;2023-06-01T09:55:27;23.70;75.40
12013;DHT22;6065;48.138;16.402;2023-06-01T10:00:37;23.80;80.40
12013;DHT22;6065;48.138;16.402;2023-06-01T10:03:04;23.80;78.50
12013;DHT22;6065;48.138;16.402;2023-06-01T10:05:32;23.90;78.50
12013;DHT22;6065;48.138;16.402;2023-06-01T10:07:59;24.00;78.40
12013;DHT22;6065;48.138;16.402;2023-06-01T10:10:26;24.00;76.40
12013;DHT22;6065;48.138;16.402;2023-06-01T10:12:53;24.00;76.50
12013;DHT22;6065;48.138;16.402;2023-06-01T10:15:20;24.10;79.00
12013;DHT22;6065;48.138;16.402;2023-06-01T10:17:49;24.10;77.00
12013;DHT22;6065;48.138;16.402;2023-06-01T10:20:16;24.20;77.40
12013;DHT22;6065;48.138;16.402;2023-06-01T10:22:43;24.20;76.60
12013;DHT22;6065;48.138;16.402;2023-06-01T10:25:10;24.20;77.40
12013;DHT22;6065;48.138;16.402;2023-06-01T10:27:38;24.20;77.90
12013;DHT22;6065;48.138;16.402;2023-06-01T10:30:07;24.20;78.00
12013;DHT22;6065;48.138;16.402;2023-06-01T10:32:40;24.30;77.80
12013;DHT22;6065;48.138;16.402;2023-06-01T10:35:08;24.40;76.90
12013;DHT22;6065;48.138;16.402;2023-06-01T10:37:37;24.50;77.80
12013;DHT22;6065;48.138;16.402;2023-06-01T10:40:11;24.60;78.10
12013;DHT22;6065;48.138;16.402;2023-06-01T10:42:45;24.60;77.60
12013;DHT22;6065;48.138;16.402;2023-06-01T10:47:57;24.80;79.20
12013;DHT22;6065;48.138;16.402;2023-06-01T10:50:25;24.90;77.90
12013;DHT22;6065;48.138;16.402;2023-06-01T10:52:52;25.00;78.00
12013;DHT22;6065;48.138;16.402;2023-06-01T10:55:23;25.00;76.80
12013;DHT22;6065;48.138;16.402;2023-06-01T10:57:50;25.10;77.50
12013;DHT22;6065;48.138;16.402;2023-06-01T11:00:18;25.10;75.60
12013;DHT22;6065;48.138;16.402;2023-06-01T11:02:46;25.10;76.10
12013;DHT22;6065;48.138;16.402;2023-06-01T11:08:00;25.30;77.30
12013;DHT22;6065;48.138;16.402;2023-06-01T11:13:14;25.60;79.50
12013;DHT22;6065;48.138;16.402;2023-06-01T11:18:41;25.70;77.90
12013;DHT22;6065;48.138;16.402;2023-06-01T11:21:08;25.70;76.60
12013;DHT22;6065;48.138;16.402;2023-06-01T11:23:37;25.70;77.40
12013;DHT22;6065;48.138;16.402;2023-06-01T11:26:05;25.70;76.70
12013;DHT22;6065;48.138;16.402;2023-06-01T11:28:32;25.70;76.40
12013;DHT22;6065;48.138;16.402;2023-06-01T11:30:59;25.70;78.80
12013;DHT22;6065;48.138;16.402;2023-06-01T11:33:27;25.80;79.00
12013;DHT22;6065;48.138;16.402;2023-06-01T11:35:57;25.80;78.70
12013;DHT22;6065;48.138;16.402;2023-06-01T11:38:23;25.90;78.90
12013;DHT22;6065;48.138;16.402;2023-06-01T11:41:01;25.90;77.90
12013;DHT22;6065;48.138;16.402;2023-06-01T11:43:29;26.00;78.70
12013;DHT22;6065;48.138;16.402;2023-06-01T11:46:02;26.10;77.60
12013;DHT22;6065;48.138;16.402;2023-06-01T11:48:29;26.10;78.20
12013;DHT22;6065;48.138;16.402;2023-06-01T11:50:56;26.20;78.50
12013;DHT22;6065;48.138;16.402;2023-06-01T11:53:23;26.20;77.40
12013;DHT22;6065;48.138;16.402;2023-06-01T11:55:50;26.20;76.70
12013;DHT22;6065;48.138;16.402;2023-06-01T11:58:22;26.20;77.40
12013;DHT22;6065;48.138;16.402;2023-06-01T12:00:49;26.30;78.20
12013;DHT22;6065;48.138;16.402;2023-06-01T12:03:16;26.30;76.10
12013;DHT22;6065;48.138;16.402;2023-06-01T12:05:43;26.40;78.40
12013;DHT22;6065;48.138;16.402;2023-06-01T12:08:12;26.40;76.40
12013;DHT22;6065;48.138;16.402;2023-06-01T12:10:39;26.50;75.90
12013;DHT22;6065;48.138;16.402;2023-06-01T12:13:08;26.60;76.40
12013;DHT22;6065;48.138;16.402;2023-06-01T12:15:37;26.70;78.20
12013;DHT22;6065;48.138;16.402;2023-06-01T12:18:04;26.80;76.60
12013;DHT22;6065;48.138;16.402;2023-06-01T12:20:31;27.00;78.90
12013;DHT22;6065;48.138;16.402;2023-06-01T12:22:58;27.00;76.60
12013;DHT22;6065;48.138;16.402;2023-06-01T12:25:28;27.00;76.50
12013;DHT22;6065;48.138;16.402;2023-06-01T12:28:03;27.00;76.50
12013;DHT22;6065;48.138;16.402;2023-06-01T12:30:30;27.00;75.50
12013;DHT22;6065;48.138;16.402;2023-06-01T12:32:58;27.00;73.80
12013;DHT22;6065;48.138;16.402;2023-06-01T12:35:25;27.00;75.20
12013;DHT22;6065;48.138;16.402;2023-06-01T12:38:01;27.00;74.60
12013;DHT22;6065;48.138;16.402;2023-06-01T12:40:28;27.10;74.80
12013;DHT22;6065;48.138;16.402;2023-06-01T12:42:55;27.10;74.60
12013;DHT22;6065;48.138;16.402;2023-06-01T12:45:22;27.10;74.00
12013;DHT22;6065;48.138;16.402;2023-06-01T12:47:49;27.10;72.60
12013;DHT22;6065;48.138;16.402;2023-06-01T12:50:17;27.20;73.10
12013;DHT22;6065;48.138;16.402;2023-06-01T12:52:43;27.30;72.30
12013;DHT22;6065;48.138;16.402;2023-06-01T12:55:10;27.30;72.70
12013;DHT22;6065;48.138;16.402;2023-06-01T12:57:38;27.40;73.20
12013;DHT22;6065;48.138;16.402;2023-06-01T13:00:06;27.50;72.40
12013;DHT22;6065;48.138;16.402;2023-06-01T13:02:34;27.50;72.00
12013;DHT22;6065;48.138;16.402;2023-06-01T13:05:01;27.50;71.50
12013;DHT22;6065;48.138;16.402;2023-06-01T13:07:30;27.50;72.90
12013;DHT22;6065;48.138;16.402;2023-06-01T13:09:58;27.50;73.70
12013;DHT22;6065;48.138;16.402;2023-06-01T13:12:25;27.50;74.20
12013;DHT22;6065;48.138;16.402;2023-06-01T13:14:52;27.50;74.20
12013;DHT22;6065;48.138;16.402;2023-06-01T13:17:21;27.50;73.10
12013;DHT22;6065;48.138;16.402;2023-06-01T13:19:47;27.60;74.30
12013;DHT22;6065;48.138;16.402;2023-06-01T13:22:14;27.70;74.80
12013;DHT22;6065;48.138;16.402;2023-06-01T13:24:42;27.70;74.80
12013;DHT22;6065;48.138;16.402;2023-06-01T13:27:09;27.80;74.80
12013;DHT22;6065;48.138;16.402;2023-06-01T13:29:36;27.80;74.60
12013;DHT22;6065;48.138;16.402;2023-06-01T13:32:03;27.90;74.60
12013;DHT22;6065;48.138;16.402;2023-06-01T13:34:30;27.90;74.70
12013;DHT22;6065;48.138;16.402;2023-06-01T13:36:57;27.90;74.10
12013;DHT22;6065;48.138;16.402;2023-06-01T13:39:23;27.80;73.70
12013;DHT22;6065;48.138;16.402;2023-06-01T13:41:51;27.90;74.40
12013;DHT22;6065;48.138;16.402;2023-06-01T13:44:18;27.90;75.50
12013;DHT22;6065;48.138;16.402;2023-06-01T13:46:45;28.00;75.50
12013;DHT22;6065;48.138;16.402;2023-06-01T13:49:12;28.00;74.30
12013;DHT22;6065;48.138;16.402;2023-06-01T13:51:39;28.00;73.10
12013;DHT22;6065;48.138;16.402;2023-06-01T13:54:06;28.10;74.10
12013;DHT22;6065;48.138;16.402;2023-06-01T13:56:33;28.10;74.60
12013;DHT22;6065;48.138;16.402;2023-06-01T13:59:01;28.10;73.80
12013;DHT22;6065;48.138;16.402;2023-06-01T14:01:28;28.10;73.90
12013;DHT22;6065;48.138;16.402;2023-06-01T14:03:55;28.10;72.80
12013;DHT22;6065;48.138;16.402;2023-06-01T14:06:21;28.10;73.70
12013;DHT22;6065;48.138;16.402;2023-06-01T14:08:48;28.10;72.90
12013;DHT22;6065;48.138;16.402;2023-06-01T14:11:15;28.20;72.90
12013;DHT22;6065;48.138;16.402;2023-06-01T14:13:42;28.20;72.60
12013;DHT22;6065;48.138;16.402;2023-06-01T14:16:10;28.20;72.40
12013;DHT22;6065;48.138;16.402;2023-06-01T14:18:37;28.10;71.10
12013;DHT22;6065;48.138;16.402;2023-06-01T14:21:04;28.10;70.90
12013;DHT22;6065;48.138;16.402;2023-06-01T14:23:30;28.10;71.10
12013;DHT22;6065;48.138;16.402;2023-06-01T14:25:57;28.10;71.70
12013;DHT22;6065;48.138;16.402;2023-06-01T14:28:24;28.10;72.00
12013;DHT22;6065;48.138;16.402;2023-06-01T14:30:51;28.10;72.50
12013;DHT22;6065;48.138;16.402;2023-06-01T14:33:19;28.10;72.00
12013;DHT22;6065;48.138;16.402;2023-06-01T14:35:45;28.20;72.50
12013;DHT22;6065;48.138;16.402;2023-06-01T14:38:12;28.20;71.70
12013;DHT22;6065;48.138;16.402;2023-06-01T14:40:39;28.20;72.90
12013;DHT22;6065;48.138;16.402;2023-06-01T14:43:06;28.20;73.10
12013;DHT22;6065;48.138;16.402;2023-06-01T14:45:32;28.10;72.60
12013;DHT22;6065;48.138;16.402;2023-06-01T14:47:59;28.10;73.00
12013;DHT22;6065;48.138;16.402;2023-06-01T14:50:27;28.10;72.40
12013;DHT22;6065;48.138;16.402;2023-06-01T14:52:54;28.00;73.20
12013;DHT22;6065;48.138;16.402;2023-06-01T14:55:24;28.00;72.40
12013;DHT22;6065;48.138;16.402;2023-06-01T14:57:51;27.90;72.40
12013;DHT22;6065;48.138;16.402;2023-06-01T15:00:18;27.90;73.10
12013;DHT22;6065;48.138;16.402;2023-06-01T15:02:45;27.90;72.80
12013;DHT22;6065;48.138;16.402;2023-06-01T15:05:12;27.90;71.60
12013;DHT22;6065;48.138;16.402;2023-06-01T15:07:40;27.80;72.10
12013;DHT22;6065;48.138;16.402;2023-06-01T15:10:07;27.80;71.90
12013;DHT22;6065;48.138;16.402;2023-06-01T15:12:35;27.80;71.50
12013;DHT22;6065;48.138;16.402;2023-06-01T15:15:01;27.80;71.50
12013;DHT22;6065;48.138;16.402;2023-06-01T15:17:28;27.80;72.50
12013;DHT22;6065;48.138;16.402;2023-06-01T15:19:55;27.70;71.60
12013;DHT22;6065;48.138;16.402;2023-06-01T15:22:21;27.70;71.50
12013;DHT22;6065;48.138;16.402;2023-06-01T15:24:50;27.60;71.50
12013;DHT22;6065;48.138;16.402;2023-06-01T15:27:16;27.60;71.50
12013;DHT22;6065;48.138;16.402;2023-06-01T15:29:44;27.60;73.30
12013;DHT22;6065;48.138;16.402;2023-06-01T15:32:11;27.60;73.80
12013;DHT22;6065;48.138;16.402;2023-06-01T15:34:38;27.60;74.10
12013;DHT22;6065;48.138;16.402;2023-06-01T15:37:06;27.60;73.90
12013;DHT22;6065;48.138;16.402;2023-06-01T15:39:33;27.60;75.60
12013;DHT22;6065;48.138;16.402;2023-06-01T15:42:01;27.70;74.90
12013;DHT22;6065;48.138;16.402;2023-06-01T15:44:30;27.60;75.30
12013;DHT22;6065;48.138;16.402;2023-06-01T15:46:56;27.60;74.80
12013;DHT22;6065;48.138;16.402;2023-06-01T15:49:23;27.60;74.10